Terminal Aerodrome Forecast
Issued by NWS

Home | Current Version | Previous Version | Graphics & Text | Print | Product List | Glossary On
Versions: 1 2 3 4 5 6 7 8 9 10 11 12 13 14 15 16 17 18 19 20 21 22 23 24 25 26 27 28 29 30 31 32 33 34 35 36 37 38
000
FTUS43 KGRB 290754 AAA
TAFRHI
TAF AMD
KRHI 290754Z 2908/3006 20006KT P6SM SKC
      TEMPO 2908/2909 3SM BR BKN008
     FM290900 VRB03KT 3SM BR SCT002 OVC006
      TEMPO 2909/2911 1/2SM FG BKN002
     FM291500 19003KT 5SM BR OVC015
     FM291800 17005KT P6SM FEW015 BKN050
     FM292100 19004KT P6SM SCT050=

USA.gov is the U.S. government's official web portal to all federal, state and local government web resources and services.